This demonstration page uses our WeatherBlox Daily Observations layout. Learn more.

Left ArrowRight Arrow

39.08367, -84.50855

Hourly Observations for June 7, 2020

Temp ( °F °C ) Dew Point ( °F °C ) Humidity (%) Winds ( mph kmh ) Pressure ( in mb ) Visibility ( mi km ) Precip ( " mm )
12:53 am 00:53 Clear 73 22.8 52 11.1 48 48 NNE 6 9 29.98 1015 10 16.0934 0 0
1:53 am 01:53 Clear 71 21.7 48 8.9 44 44 N 6 9 29.98 1015 10 16.0934 0 0
2:53 am 02:53 Clear 68 20 50 10 53 53 NE 5 7 30 1016 10 16.0934 0 0
3:53 am 03:53 Clear 65 18.3 53 11.7 66 66 NE 3 6 30 1016 10 16.0934 0 0
4:53 am 04:53 Clear 63 17.2 53 11.7 70 70 NNE 5 7 30 1016 10 16.0934 0 0
5:53 am 05:53 Clear 63 17.2 53 11.7 70 70 NE 3 6 30.03 1017 10 16.0934 0 0
6:53 am 06:53 Sunny 61 16.1 55 12.8 81 81 Calm 30.05 1018 10 16.0934 0 0
7:53 am 07:53 Sunny 66 18.9 58 14.4 75 75 NE 5 7 30.06 1018 10 16.0934 0 0
8:53 am 08:53 Sunny 69 20.6 56 13.3 63 63 ENE 7 11 30.07 1018 10 16.0934 0 0
9:53 am 09:53 Sunny 73 22.8 54 12.2 51 51 VRB 3 6 30.06 1018 10 16.0934 0 0
10:53 am 10:53 Sunny 76 24.4 55 12.8 48 48 NE 10 17 30.05 1018 10 16.0934 0 0
11:53 am 11:53 Sunny 78 25.6 54 12.2 43 43 NNW 7 11 30.07 1018 10 16.0934 0 0
12:53 pm 12:53 Sunny 80 26.7 55 12.8 42 42 NE 12 19 30.06 1018 10 16.0934 0 0
1:53 pm 13:53 Sunny 81 27.2 54 12.2 39 39 NNE 12 19 30.05 1018 10 16.0934 0 0
2:53 pm 14:53 Sunny 82 27.8 52 11.1 35 35 NNE 7 11 30.04 1017 10 16.0934 0 0
3:53 pm 15:53 Sunny 81 27.2 54 12.2 39 39 NE 13 20 30.01 1016 10 16.0934 0 0
4:53 pm 16:53 Sunny 82 27.8 55 12.8 40 40 NE 10 17 30.01 1016 10 16.0934 0 0
5:53 pm 17:53 Sunny 82 27.8 54 12.2 38 38 NNE 8 13 30.01 1016 10 16.0934 0 0
6:53 pm 18:53 Sunny 81 27.2 53 11.7 38 38 NE 7 11 30 1016 10 16.0934 0 0
7:53 pm 19:53 Sunny 79 26.1 53 11.7 41 41 NNE 6 9 30 1016 10 16.0934 0 0
8:53 pm 20:53 Sunny 72 22.2 60 15.6 66 66 NE 3 6 30 1016 10 16.0934 0 0
9:53 pm 21:53 Clear 69 20.6 58 14.4 68 68 Calm 30 1016 10 16.0934 0 0
10:53 pm 22:53 Clear 65 18.3 57 13.9 76 76 Calm 30.02 1017 10 16.0934 0 0
11:53 pm 23:53 Clear 61 16.1 57 13.9 87 87 Calm 30.01 1016 10 16.0934 0 0

Powered by AerisWeather